Capt. Harry — WDC3690 — position and weather

sailwx.info

Track history (hours):
 
Tides and Currents Weather Stations Pressure Air Temp Water Temp Dewpoint Dewpoint Depression Visibility Wind Speed Wind Dir Waves Ship Positions

Capt. Harry

Owner: Wilmington Tug, Inc., New Castle, DE. More information available from US FCC via Universal Licensing System and Coast Guard Vessel Documentation Center.

Last reported at 2016-Jul-28 19:33 UTC. Time now 2016-Jul-28 20:19 UTC.
Position N 39°49' W 075°23'.

Type: Tug. MMSI: 367012530.

Date/timePositionNaut miles runAvg speedWind from/ knotsBaromVisibWave heightAir tempDewpointWater temp
2016-Jul-28 19:33N 39°49' W 075°23'5 5.4
2016-Jul-28 18:33N 39°51' W 075°16'1 0.5
2016-Jul-28 17:33N 39°51' W 075°16'4 4.0
2016-Jul-28 16:33N 39°53' W 075°11'0 0.0
2016-Jul-28 15:33N 39°53' W 075°11'0 0.0
2016-Jul-28 14:33N 39°53' W 075°11'0 0.0
2016-Jul-28 13:33N 39°53' W 075°11'0 0.0
2016-Jul-28 12:33N 39°53' W 075°11'2 1.9
2016-Jul-28 11:34N 39°52' W 075°13'2 1.9
2016-Jul-28 10:34N 39°51' W 075°15'0 0.4
2016-Jul-28 09:34N 39°51' W 075°16'0 0.0
2016-Jul-28 08:34N 39°51' W 075°16'0 0.0
2016-Jul-28 07:33N 39°51' W 075°16'0 0.0
2016-Jul-28 06:33N 39°51' W 075°16'0 0.2
2016-Jul-28 05:34N 39°51' W 075°16'0 0.2
2016-Jul-28 04:33N 39°51' W 075°16'0 0.0
2016-Jul-28 03:33N 39°51' W 075°16'0 0.4
2016-Jul-28 02:34N 39°51' W 075°16'0 0.1
2016-Jul-28 01:33N 39°51' W 075°16'1 0.5
2016-Jul-28 00:34N 39°51' W 075°16'0 0.0
2016-Jul-27 23:34N 39°51' W 075°16'0 0.0
2016-Jul-27 22:34N 39°51' W 075°16'7 7.0
2016-Jul-27 21:33N 39°49' W 075°24'0 0.0
2016-Jul-27 20:33N 39°49' W 075°24'1 1.1
2016-Jul-27 19:33N 39°48' W 075°25'8 7.9
2016-Jul-27 18:34N 39°51' W 075°16'7 6.9
2016-Jul-27 17:33N 39°54' W 075°08'0 0.1
2016-Jul-27 16:34N 39°54' W 075°08'3 2.6
2016-Jul-27 15:33N 39°53' W 075°11'0 0.0
2016-Jul-27 14:34N 39°53' W 075°11'0 0.0
2016-Jul-27 13:34N 39°53' W 075°11'0 0.0
2016-Jul-27 12:33N 39°53' W 075°11'1 0.6
2016-Jul-27 11:34N 39°53' W 075°12'1 1.2
2016-Jul-27 10:34N 39°52' W 075°13'2 2.4
2016-Jul-27 09:33N 39°51' W 075°16'0 0.0
2016-Jul-27 08:33N 39°51' W 075°16'0 0.0
2016-Jul-27 07:33N 39°51' W 075°16'7 6.5
2016-Jul-27 06:33N 39°54' W 075°08'2 2.4
2016-Jul-27 05:33N 39°53' W 075°11'0 0.0
2016-Jul-27 04:33N 39°53' W 075°11'0 0.0
2016-Jul-27 03:33N 39°53' W 075°11'0 0.0
2016-Jul-27 02:33N 39°53' W 075°11'0 0.0
2016-Jul-27 01:33N 39°53' W 075°11'0 0.0
2016-Jul-27 00:33N 39°53' W 075°11'0 0.0
2016-Jul-26 23:33N 39°53' W 075°11'0 0.0
2016-Jul-26 22:33N 39°53' W 075°11'0 0.0
2016-Jul-26 21:33N 39°53' W 075°11'0 0.0
2016-Jul-26 20:33N 39°53' W 075°11'0 0.0
2016-Jul-26 19:33N 39°53' W 075°11'0 0.0
2016-Jul-26 18:33N 39°53' W 075°11'0 0.0
2016-Jul-26 17:33N 39°53' W 075°11'0 0.0
2016-Jul-26 16:33N 39°53' W 075°11'0 0.0
2016-Jul-26 15:33N 39°53' W 075°11'0 0.0
2016-Jul-26 14:33N 39°53' W 075°11'0 0.0
2016-Jul-26 13:34N 39°53' W 075°11'0 0.0
2016-Jul-26 12:33N 39°53' W 075°11'0 0.0
2016-Jul-26 11:33N 39°53' W 075°11'2 2.4
2016-Jul-26 10:33N 39°54' W 075°08'2 2.4
2016-Jul-26 09:33N 39°53' W 075°11'0 0.0
2016-Jul-26 08:33N 39°53' W 075°11'0 0.0
2016-Jul-26 07:33N 39°53' W 075°11'0 0.0
2016-Jul-26 06:33N 39°53' W 075°11'0 0.0
2016-Jul-26 05:33N 39°53' W 075°11'0 0.0
2016-Jul-26 04:33N 39°53' W 075°11'0 0.0
2016-Jul-26 03:33N 39°53' W 075°11'0 0.0
2016-Jul-26 02:34N 39°53' W 075°11'0 0.0
2016-Jul-26 01:33N 39°53' W 075°11'0 0.0
2016-Jul-26 00:33N 39°53' W 075°11'0 0.0
2016-Jul-25 23:33N 39°53' W 075°11'0 0.0
2016-Jul-25 22:34N 39°53' W 075°11'2 2.5
2016-Jul-25 21:33N 39°54' W 075°08'0 0.2
2016-Jul-25 20:33N 39°54' W 075°08'0 0.0
2016-Jul-25 19:33N 39°54' W 075°08'0 0.0
2016-Jul-25 18:33N 39°54' W 075°08'0 0.0
2016-Jul-25 17:33N 39°54' W 075°08'0 0.0
2016-Jul-25 16:33N 39°54' W 075°08'0 0.0
2016-Jul-25 15:33N 39°54' W 075°08'0 0.0
2016-Jul-25 14:33N 39°54' W 075°08'0 0.0
2016-Jul-25 13:33N 39°54' W 075°08'0 0.0
2016-Jul-25 12:33N 39°54' W 075°08'0 0.5
2016-Jul-25 11:33N 39°54' W 075°08'2 2.1
2016-Jul-25 10:33N 39°53' W 075°10'1 0.9
2016-Jul-25 09:33N 39°53' W 075°11'0 0.0
2016-Jul-25 08:33N 39°53' W 075°11'0 0.0
2016-Jul-25 07:33N 39°53' W 075°11'0 0.0
2016-Jul-25 06:33N 39°53' W 075°11'0 0.0
2016-Jul-25 05:33N 39°53' W 075°11'0 0.0
2016-Jul-25 04:33N 39°53' W 075°11'0 0.0
2016-Jul-25 03:33N 39°53' W 075°11'0 0.0
2016-Jul-25 02:33N 39°53' W 075°11'0 0.0
2016-Jul-25 01:33N 39°53' W 075°11'0 0.0
2016-Jul-25 00:33N 39°53' W 075°11'0 0.0
2016-Jul-24 23:33N 39°53' W 075°11'3 2.5
2016-Jul-24 22:33N 39°54' W 075°08'3 2.6
2016-Jul-24 21:34N 39°53' W 075°11'0 0.0
2016-Jul-24 20:34N 39°53' W 075°11'0 0.0
2016-Jul-24 19:33N 39°53' W 075°11'0 0.0
2016-Jul-24 18:33N 39°53' W 075°11'0 0.0
2016-Jul-24 17:33N 39°53' W 075°11'0 0.0
2016-Jul-24 16:33N 39°53' W 075°11'0 0.0
2016-Jul-24 15:33N 39°53' W 075°11'0 0.0
2016-Jul-24 14:33N 39°53' W 075°11'0 0.0
2016-Jul-24 13:34N 39°53' W 075°11'0 0.0
2016-Jul-24 12:34N 39°53' W 075°11'0 0.0
2016-Jul-24 11:33N 39°53' W 075°11'3 2.6
2016-Jul-24 10:33N 39°54' W 075°08'3 2.6
2016-Jul-24 09:34N 39°53' W 075°11'0 0.0
2016-Jul-24 08:33N 39°53' W 075°11'0 0.0
2016-Jul-24 07:33N 39°53' W 075°11'0 0.0
2016-Jul-24 06:33N 39°53' W 075°11'0 0.0
2016-Jul-24 05:34N 39°53' W 075°11'0 0.0
2016-Jul-24 04:33N 39°53' W 075°11'0 0.0
2016-Jul-24 03:33N 39°53' W 075°11'0 0.0
2016-Jul-24 02:33N 39°53' W 075°11'0 0.0
2016-Jul-24 01:33N 39°53' W 075°11'2 1.5
2016-Jul-24 00:34N 39°54' W 075°13'2 1.5
2016-Jul-23 23:33N 39°53' W 075°11'0 0.0
2016-Jul-23 22:33N 39°53' W 075°11'0 0.0
2016-Jul-23 21:33N 39°53' W 075°11'0 0.0
2016-Jul-23 20:33N 39°53' W 075°11'0 0.0
2016-Jul-23 19:33N 39°53' W 075°11'0 0.0
2016-Jul-23 18:33N 39°53' W 075°11'0 0.0
2016-Jul-23 17:33N 39°53' W 075°11'0 0.0
2016-Jul-23 16:33N 39°53' W 075°11'0 0.0
2016-Jul-23 15:33N 39°53' W 075°11'0 0.0
2016-Jul-23 14:33N 39°53' W 075°11'0 0.0
2016-Jul-23 13:33N 39°53' W 075°11'0 0.0
2016-Jul-23 12:33N 39°53' W 075°11'0 0.0
2016-Jul-23 11:34N 39°53' W 075°11'0 0.0
2016-Jul-23 10:33N 39°53' W 075°11'0 0.0
2016-Jul-23 09:33N 39°53' W 075°11'0 0.0
2016-Jul-23 08:33N 39°53' W 075°11'0 0.0
2016-Jul-23 07:33N 39°53' W 075°11'0 0.0
2016-Jul-23 06:33N 39°53' W 075°11'0 0.0
2016-Jul-23 04:33N 39°53' W 075°11'0 0.0
2016-Jul-23 03:33N 39°53' W 075°11'0 0.0
2016-Jul-23 02:34N 39°53' W 075°11'0 0.0
2016-Jul-23 01:33N 39°53' W 075°11'0 0.0
2016-Jul-23 00:33N 39°53' W 075°11'0 0.0
2016-Jul-22 23:33N 39°53' W 075°11'0 0.0
2016-Jul-22 22:33N 39°53' W 075°11'0 0.0
2016-Jul-22 21:33N 39°53' W 075°11'0 0.0
2016-Jul-22 20:33N 39°53' W 075°11'3 2.5
2016-Jul-22 19:33N 39°54' W 075°08'0 0.3
2016-Jul-22 18:33N 39°54' W 075°08'5 4.9
2016-Jul-22 17:33N 39°52' W 075°14'2 2.3
2016-Jul-22 16:33N 39°53' W 075°11'2 2.1
2016-Jul-22 15:33N 39°53' W 075°09'6 5.9
2016-Jul-22 14:33N 39°51' W 075°16'0 0.0
2016-Jul-22 13:33N 39°51' W 075°16'0 0.0
2016-Jul-22 12:33N 39°51' W 075°16'0 0.0
2016-Jul-22 11:33N 39°51' W 075°16'0 0.0
2016-Jul-22 10:33N 39°51' W 075°16'0 0.0
2016-Jul-22 09:33N 39°51' W 075°16'0 0.0
2016-Jul-22 08:33N 39°51' W 075°16'0 0.0
2016-Jul-22 07:33N 39°51' W 075°16'0 0.0
2016-Jul-22 04:33N 39°51' W 075°16'0 0.0
2016-Jul-22 03:33N 39°51' W 075°16'0 0.0
2016-Jul-22 02:33N 39°51' W 075°16'0 0.0
2016-Jul-22 01:33N 39°51' W 075°16'0 0.0
2016-Jul-22 00:33N 39°51' W 075°16'0 0.0
2016-Jul-21 23:33N 39°51' W 075°16'0 0.0
2016-Jul-21 22:33N 39°51' W 075°16'0 0.0
2016-Jul-21 21:33N 39°51' W 075°16'0 0.0
2016-Jul-21 20:33N 39°51' W 075°16'0 0.0
2016-Jul-21 19:33N 39°51' W 075°16'0 0.0
2016-Jul-21 18:33N 39°51' W 075°16'0 0.0
2016-Jul-21 17:33N 39°51' W 075°16'0 0.0
2016-Jul-21 16:33N 39°51' W 075°16'0 0.1
2016-Jul-21 15:33N 39°51' W 075°16'4 4.2
2016-Jul-21 14:33N 39°53' W 075°11'0 0.0
2016-Jul-21 13:33N 39°53' W 075°11'0 0.0
2016-Jul-21 12:33N 39°53' W 075°11'0 0.0
2016-Jul-21 11:34N 39°53' W 075°11'0 0.0
2016-Jul-21 10:33N 39°53' W 075°11'0 0.0
2016-Jul-21 09:33N 39°53' W 075°11'0 0.0
2016-Jul-21 08:34N 39°53' W 075°11'0 0.0
2016-Jul-21 07:33N 39°53' W 075°11'0 0.0
2016-Jul-21 06:33N 39°53' W 075°11'0 0.0
2016-Jul-21 05:33N 39°53' W 075°11'0 0.0
2016-Jul-21 04:33N 39°53' W 075°11'0 0.0
2016-Jul-21 03:33N 39°53' W 075°11'0 0.0
2016-Jul-21 02:33N 39°53' W 075°11'0 0.0
2016-Jul-21 01:33N 39°53' W 075°11'0 0.0
2016-Jul-21 00:33N 39°53' W 075°11'0 0.0
2016-Jul-20 23:33N 39°53' W 075°11'0 0.0
2016-Jul-20 22:33N 39°53' W 075°11'0 0.0
2016-Jul-20 21:33N 39°53' W 075°11'0 0.1
2016-Jul-20 20:33N 39°53' W 075°11'0 0.1
2016-Jul-20 19:33N 39°53' W 075°11'0 0.0
2016-Jul-20 18:33N 39°53' W 075°11'0 0.0
2016-Jul-20 17:33N 39°53' W 075°11'0 0.0
2016-Jul-20 16:33N 39°53' W 075°11'0 0.0
2016-Jul-20 15:33N 39°53' W 075°11'0 0.0
2016-Jul-20 14:33N 39°53' W 075°11'0 0.0
2016-Jul-20 13:33N 39°53' W 075°11'2 2.4
2016-Jul-20 12:33N 39°54' W 075°08'2 2.4
2016-Jul-20 11:33N 39°53' W 075°11'0 0.0
2016-Jul-20 10:33N 39°53' W 075°11'0 0.0
2016-Jul-20 09:34N 39°53' W 075°11'0 0.0
2016-Jul-20 08:33N 39°53' W 075°11'0 0.0
2016-Jul-20 07:34N 39°53' W 075°11'0 0.0
2016-Jul-20 06:34N 39°53' W 075°11'0 0.0
2016-Jul-20 05:33N 39°53' W 075°11'0 0.0
2016-Jul-20 04:33N 39°53' W 075°11'0 0.0
2016-Jul-20 03:33N 39°53' W 075°11'0 0.0
2016-Jul-20 02:33N 39°53' W 075°11'0 0.0
2016-Jul-20 01:33N 39°53' W 075°11'0 0.0
2016-Jul-20 00:33N 39°53' W 075°11'0 0.0
2016-Jul-19 23:33N 39°53' W 075°11'0 0.0
2016-Jul-19 22:33N 39°53' W 075°11'0 0.0
2016-Jul-19 21:33N 39°53' W 075°11'0 0.0
2016-Jul-19 20:33N 39°53' W 075°11'0 0.1
2016-Jul-19 19:33N 39°53' W 075°11'0 0.3
2016-Jul-19 18:33N 39°53' W 075°11'0 0.4
2016-Jul-19 17:33N 39°53' W 075°11'0 0.0
2016-Jul-19 16:33N 39°53' W 075°11'0 0.0
2016-Jul-19 15:33N 39°53' W 075°11'0 0.0
2016-Jul-19 14:33N 39°53' W 075°11'0 0.3
2016-Jul-19 13:33N 39°53' W 075°12'0 0.3
2016-Jul-19 12:33N 39°53' W 075°12'1 0.6
2016-Jul-19 11:33N 39°53' W 075°11'0 0.0
2016-Jul-19 10:33N 39°53' W 075°11'0 0.0
2016-Jul-19 09:33N 39°53' W 075°11'0 0.0
2016-Jul-19 08:33N 39°53' W 075°11'0 0.0
2016-Jul-19 07:33N 39°53' W 075°11'11 3.7
2016-Jul-19 04:33N 39°49' W 075°24'0 0.0
2016-Jul-19 03:33N 39°49' W 075°24'1 0.8
2016-Jul-19 02:33N 39°48' W 075°25'1 0.9
2016-Jul-19 01:33N 39°49' W 075°24'7 7.0
2016-Jul-19 00:34N 39°44' W 075°30'1 0.8
2016-Jul-18 23:33N 39°43' W 075°31'0 0.0
2016-Jul-18 22:33N 39°43' W 075°31'0 0.2
2016-Jul-18 21:34N 39°43' W 075°31'0 0.0
2016-Jul-18 20:33N 39°43' W 075°31'0 0.0
2016-Jul-18 19:34N 39°43' W 075°31'  
Track history (hours):
 
Tides and Currents Weather Stations Pressure Air Temp Water Temp Dewpoint Dewpoint Depression Visibility Wind Speed Wind Dir Waves Ship Positions

Capt. Harry

Owner: Wilmington Tug, Inc., New Castle, DE. More information available from US FCC via Universal Licensing System and Coast Guard Vessel Documentation Center.

Last reported at 2016-Jul-28 19:33 UTC. Time now 2016-Jul-28 20:19 UTC.
Position N 39°49' W 075°23'.

Type: Tug. MMSI: 367012530.

Date/timePositionNaut miles runAvg speedWind from/ knotsBaromVisibWave heightAir tempDewpointWater temp
2016-Jul-28 19:33N 39°49' W 075°23'5 5.4
2016-Jul-28 18:33N 39°51' W 075°16'1 0.5
2016-Jul-28 17:33N 39°51' W 075°16'4 4.0
2016-Jul-28 16:33N 39°53' W 075°11'0 0.0
2016-Jul-28 15:33N 39°53' W 075°11'0 0.0
2016-Jul-28 14:33N 39°53' W 075°11'0 0.0
2016-Jul-28 13:33N 39°53' W 075°11'0 0.0
2016-Jul-28 12:33N 39°53' W 075°11'2 1.9
2016-Jul-28 11:34N 39°52' W 075°13'2 1.9
2016-Jul-28 10:34N 39°51' W 075°15'0 0.4
2016-Jul-28 09:34N 39°51' W 075°16'0 0.0
2016-Jul-28 08:34N 39°51' W 075°16'0 0.0
2016-Jul-28 07:33N 39°51' W 075°16'0 0.0
2016-Jul-28 06:33N 39°51' W 075°16'0 0.2
2016-Jul-28 05:34N 39°51' W 075°16'0 0.2
2016-Jul-28 04:33N 39°51' W 075°16'0 0.0
2016-Jul-28 03:33N 39°51' W 075°16'0 0.4
2016-Jul-28 02:34N 39°51' W 075°16'0 0.1
2016-Jul-28 01:33N 39°51' W 075°16'1 0.5
2016-Jul-28 00:34N 39°51' W 075°16'0 0.0
2016-Jul-27 23:34N 39°51' W 075°16'0 0.0
2016-Jul-27 22:34N 39°51' W 075°16'7 7.0
2016-Jul-27 21:33N 39°49' W 075°24'0 0.0
2016-Jul-27 20:33N 39°49' W 075°24'1 1.1
2016-Jul-27 19:33N 39°48' W 075°25'8 7.9
2016-Jul-27 18:34N 39°51' W 075°16'7 6.9
2016-Jul-27 17:33N 39°54' W 075°08'0 0.1
2016-Jul-27 16:34N 39°54' W 075°08'3 2.6
2016-Jul-27 15:33N 39°53' W 075°11'0 0.0
2016-Jul-27 14:34N 39°53' W 075°11'0 0.0
2016-Jul-27 13:34N 39°53' W 075°11'0 0.0
2016-Jul-27 12:33N 39°53' W 075°11'1 0.6
2016-Jul-27 11:34N 39°53' W 075°12'1 1.2
2016-Jul-27 10:34N 39°52' W 075°13'2 2.4
2016-Jul-27 09:33N 39°51' W 075°16'0 0.0
2016-Jul-27 08:33N 39°51' W 075°16'0 0.0
2016-Jul-27 07:33N 39°51' W 075°16'7 6.5
2016-Jul-27 06:33N 39°54' W 075°08'2 2.4
2016-Jul-27 05:33N 39°53' W 075°11'0 0.0
2016-Jul-27 04:33N 39°53' W 075°11'0 0.0
2016-Jul-27 03:33N 39°53' W 075°11'0 0.0
2016-Jul-27 02:33N 39°53' W 075°11'0 0.0
2016-Jul-27 01:33N 39°53' W 075°11'0 0.0
2016-Jul-27 00:33N 39°53' W 075°11'0 0.0
2016-Jul-26 23:33N 39°53' W 075°11'0 0.0
2016-Jul-26 22:33N 39°53' W 075°11'0 0.0
2016-Jul-26 21:33N 39°53' W 075°11'0 0.0
2016-Jul-26 20:33N 39°53' W 075°11'0 0.0
2016-Jul-26 19:33N 39°53' W 075°11'0 0.0
2016-Jul-26 18:33N 39°53' W 075°11'0 0.0
2016-Jul-26 17:33N 39°53' W 075°11'0 0.0
2016-Jul-26 16:33N 39°53' W 075°11'0 0.0
2016-Jul-26 15:33N 39°53' W 075°11'0 0.0
2016-Jul-26 14:33N 39°53' W 075°11'0 0.0
2016-Jul-26 13:34N 39°53' W 075°11'0 0.0
2016-Jul-26 12:33N 39°53' W 075°11'0 0.0
2016-Jul-26 11:33N 39°53' W 075°11'2 2.4
2016-Jul-26 10:33N 39°54' W 075°08'2 2.4
2016-Jul-26 09:33N 39°53' W 075°11'0 0.0
2016-Jul-26 08:33N 39°53' W 075°11'0 0.0
2016-Jul-26 07:33N 39°53' W 075°11'0 0.0
2016-Jul-26 06:33N 39°53' W 075°11'0 0.0
2016-Jul-26 05:33N 39°53' W 075°11'0 0.0
2016-Jul-26 04:33N 39°53' W 075°11'0 0.0
2016-Jul-26 03:33N 39°53' W 075°11'0 0.0
2016-Jul-26 02:34N 39°53' W 075°11'0 0.0
2016-Jul-26 01:33N 39°53' W 075°11'0 0.0
2016-Jul-26 00:33N 39°53' W 075°11'0 0.0
2016-Jul-25 23:33N 39°53' W 075°11'0 0.0
2016-Jul-25 22:34N 39°53' W 075°11'2 2.5
2016-Jul-25 21:33N 39°54' W 075°08'0 0.2
2016-Jul-25 20:33N 39°54' W 075°08'0 0.0
2016-Jul-25 19:33N 39°54' W 075°08'0 0.0
2016-Jul-25 18:33N 39°54' W 075°08'0 0.0
2016-Jul-25 17:33N 39°54' W 075°08'0 0.0
2016-Jul-25 16:33N 39°54' W 075°08'0 0.0
2016-Jul-25 15:33N 39°54' W 075°08'0 0.0
2016-Jul-25 14:33N 39°54' W 075°08'0 0.0
2016-Jul-25 13:33N 39°54' W 075°08'0 0.0
2016-Jul-25 12:33N 39°54' W 075°08'0 0.5
2016-Jul-25 11:33N 39°54' W 075°08'2 2.1
2016-Jul-25 10:33N 39°53' W 075°10'1 0.9
2016-Jul-25 09:33N 39°53' W 075°11'0 0.0
2016-Jul-25 08:33N 39°53' W 075°11'0 0.0
2016-Jul-25 07:33N 39°53' W 075°11'0 0.0
2016-Jul-25 06:33N 39°53' W 075°11'0 0.0
2016-Jul-25 05:33N 39°53' W 075°11'0 0.0
2016-Jul-25 04:33N 39°53' W 075°11'0 0.0
2016-Jul-25 03:33N 39°53' W 075°11'0 0.0
2016-Jul-25 02:33N 39°53' W 075°11'0 0.0
2016-Jul-25 01:33N 39°53' W 075°11'0 0.0
2016-Jul-25 00:33N 39°53' W 075°11'0 0.0
2016-Jul-24 23:33N 39°53' W 075°11'3 2.5
2016-Jul-24 22:33N 39°54' W 075°08'3 2.6
2016-Jul-24 21:34N 39°53' W 075°11'0 0.0
2016-Jul-24 20:34N 39°53' W 075°11'0 0.0
2016-Jul-24 19:33N 39°53' W 075°11'0 0.0
2016-Jul-24 18:33N 39°53' W 075°11'0 0.0
2016-Jul-24 17:33N 39°53' W 075°11'0 0.0
2016-Jul-24 16:33N 39°53' W 075°11'0 0.0
2016-Jul-24 15:33N 39°53' W 075°11'0 0.0
2016-Jul-24 14:33N 39°53' W 075°11'0 0.0
2016-Jul-24 13:34N 39°53' W 075°11'0 0.0
2016-Jul-24 12:34N 39°53' W 075°11'0 0.0
2016-Jul-24 11:33N 39°53' W 075°11'3 2.6
2016-Jul-24 10:33N 39°54' W 075°08'3 2.6
2016-Jul-24 09:34N 39°53' W 075°11'0 0.0
2016-Jul-24 08:33N 39°53' W 075°11'0 0.0
2016-Jul-24 07:33N 39°53' W 075°11'0 0.0
2016-Jul-24 06:33N 39°53' W 075°11'0 0.0
2016-Jul-24 05:34N 39°53' W 075°11'0 0.0
2016-Jul-24 04:33N 39°53' W 075°11'0 0.0
2016-Jul-24 03:33N 39°53' W 075°11'0 0.0
2016-Jul-24 02:33N 39°53' W 075°11'0 0.0
2016-Jul-24 01:33N 39°53' W 075°11'2 1.5
2016-Jul-24 00:34N 39°54' W 075°13'2 1.5
2016-Jul-23 23:33N 39°53' W 075°11'0 0.0
2016-Jul-23 22:33N 39°53' W 075°11'0 0.0
2016-Jul-23 21:33N 39°53' W 075°11'0 0.0
2016-Jul-23 20:33N 39°53' W 075°11'0 0.0
2016-Jul-23 19:33N 39°53' W 075°11'0 0.0
2016-Jul-23 18:33N 39°53' W 075°11'0 0.0
2016-Jul-23 17:33N 39°53' W 075°11'0 0.0
2016-Jul-23 16:33N 39°53' W 075°11'0 0.0
2016-Jul-23 15:33N 39°53' W 075°11'0 0.0
2016-Jul-23 14:33N 39°53' W 075°11'0 0.0
2016-Jul-23 13:33N 39°53' W 075°11'0 0.0
2016-Jul-23 12:33N 39°53' W 075°11'0 0.0
2016-Jul-23 11:34N 39°53' W 075°11'0 0.0
2016-Jul-23 10:33N 39°53' W 075°11'0 0.0
2016-Jul-23 09:33N 39°53' W 075°11'0 0.0
2016-Jul-23 08:33N 39°53' W 075°11'0 0.0
2016-Jul-23 07:33N 39°53' W 075°11'0 0.0
2016-Jul-23 06:33N 39°53' W 075°11'0 0.0
2016-Jul-23 04:33N 39°53' W 075°11'0 0.0
2016-Jul-23 03:33N 39°53' W 075°11'0 0.0
2016-Jul-23 02:34N 39°53' W 075°11'0 0.0
2016-Jul-23 01:33N 39°53' W 075°11'0 0.0
2016-Jul-23 00:33N 39°53' W 075°11'0 0.0
2016-Jul-22 23:33N 39°53' W 075°11'0 0.0
2016-Jul-22 22:33N 39°53' W 075°11'0 0.0
2016-Jul-22 21:33N 39°53' W 075°11'0 0.0
2016-Jul-22 20:33N 39°53' W 075°11'3 2.5
2016-Jul-22 19:33N 39°54' W 075°08'0 0.3
2016-Jul-22 18:33N 39°54' W 075°08'5 4.9
2016-Jul-22 17:33N 39°52' W 075°14'2 2.3
2016-Jul-22 16:33N 39°53' W 075°11'2 2.1
2016-Jul-22 15:33N 39°53' W 075°09'6 5.9
2016-Jul-22 14:33N 39°51' W 075°16'0 0.0
2016-Jul-22 13:33N 39°51' W 075°16'0 0.0
2016-Jul-22 12:33N 39°51' W 075°16'0 0.0
2016-Jul-22 11:33N 39°51' W 075°16'0 0.0
2016-Jul-22 10:33N 39°51' W 075°16'0 0.0
2016-Jul-22 09:33N 39°51' W 075°16'0 0.0
2016-Jul-22 08:33N 39°51' W 075°16'0 0.0
2016-Jul-22 07:33N 39°51' W 075°16'0 0.0
2016-Jul-22 04:33N 39°51' W 075°16'0 0.0
2016-Jul-22 03:33N 39°51' W 075°16'0 0.0
2016-Jul-22 02:33N 39°51' W 075°16'0 0.0
2016-Jul-22 01:33N 39°51' W 075°16'0 0.0
2016-Jul-22 00:33N 39°51' W 075°16'0 0.0
2016-Jul-21 23:33N 39°51' W 075°16'0 0.0
2016-Jul-21 22:33N 39°51' W 075°16'0 0.0
2016-Jul-21 21:33N 39°51' W 075°16'0 0.0
2016-Jul-21 20:33N 39°51' W 075°16'0 0.0
2016-Jul-21 19:33N 39°51' W 075°16'0 0.0
2016-Jul-21 18:33N 39°51' W 075°16'0 0.0
2016-Jul-21 17:33N 39°51' W 075°16'0 0.0
2016-Jul-21 16:33N 39°51' W 075°16'0 0.1
2016-Jul-21 15:33N 39°51' W 075°16'4 4.2
2016-Jul-21 14:33N 39°53' W 075°11'0 0.0
2016-Jul-21 13:33N 39°53' W 075°11'0 0.0
2016-Jul-21 12:33N 39°53' W 075°11'0 0.0
2016-Jul-21 11:34N 39°53' W 075°11'0 0.0
2016-Jul-21 10:33N 39°53' W 075°11'0 0.0
2016-Jul-21 09:33N 39°53' W 075°11'0 0.0
2016-Jul-21 08:34N 39°53' W 075°11'0 0.0
2016-Jul-21 07:33N 39°53' W 075°11'0 0.0
2016-Jul-21 06:33N 39°53' W 075°11'0 0.0
2016-Jul-21 05:33N 39°53' W 075°11'0 0.0
2016-Jul-21 04:33N 39°53' W 075°11'0 0.0
2016-Jul-21 03:33N 39°53' W 075°11'0 0.0
2016-Jul-21 02:33N 39°53' W 075°11'0 0.0
2016-Jul-21 01:33N 39°53' W 075°11'0 0.0
2016-Jul-21 00:33N 39°53' W 075°11'0 0.0
2016-Jul-20 23:33N 39°53' W 075°11'0 0.0
2016-Jul-20 22:33N 39°53' W 075°11'0 0.0
2016-Jul-20 21:33N 39°53' W 075°11'0 0.1
2016-Jul-20 20:33N 39°53' W 075°11'0 0.1
2016-Jul-20 19:33N 39°53' W 075°11'0 0.0
2016-Jul-20 18:33N 39°53' W 075°11'0 0.0
2016-Jul-20 17:33N 39°53' W 075°11'0 0.0
2016-Jul-20 16:33N 39°53' W 075°11'0 0.0
2016-Jul-20 15:33N 39°53' W 075°11'0 0.0
2016-Jul-20 14:33N 39°53' W 075°11'0 0.0
2016-Jul-20 13:33N 39°53' W 075°11'2 2.4
2016-Jul-20 12:33N 39°54' W 075°08'2 2.4
2016-Jul-20 11:33N 39°53' W 075°11'0 0.0
2016-Jul-20 10:33N 39°53' W 075°11'0 0.0
2016-Jul-20 09:34N 39°53' W 075°11'0 0.0
2016-Jul-20 08:33N 39°53' W 075°11'0 0.0
2016-Jul-20 07:34N 39°53' W 075°11'0 0.0
2016-Jul-20 06:34N 39°53' W 075°11'0 0.0
2016-Jul-20 05:33N 39°53' W 075°11'0 0.0
2016-Jul-20 04:33N 39°53' W 075°11'0 0.0
2016-Jul-20 03:33N 39°53' W 075°11'0 0.0
2016-Jul-20 02:33N 39°53' W 075°11'0 0.0
2016-Jul-20 01:33N 39°53' W 075°11'0 0.0
2016-Jul-20 00:33N 39°53' W 075°11'0 0.0
2016-Jul-19 23:33N 39°53' W 075°11'0 0.0
2016-Jul-19 22:33N 39°53' W 075°11'0 0.0
2016-Jul-19 21:33N 39°53' W 075°11'0 0.0
2016-Jul-19 20:33N 39°53' W 075°11'0 0.1
2016-Jul-19 19:33N 39°53' W 075°11'0 0.3
2016-Jul-19 18:33N 39°53' W 075°11'0 0.4
2016-Jul-19 17:33N 39°53' W 075°11'0 0.0
2016-Jul-19 16:33N 39°53' W 075°11'0 0.0
2016-Jul-19 15:33N 39°53' W 075°11'0 0.0
2016-Jul-19 14:33N 39°53' W 075°11'0 0.3
2016-Jul-19 13:33N 39°53' W 075°12'0 0.3
2016-Jul-19 12:33N 39°53' W 075°12'1 0.6
2016-Jul-19 11:33N 39°53' W 075°11'0 0.0
2016-Jul-19 10:33N 39°53' W 075°11'0 0.0
2016-Jul-19 09:33N 39°53' W 075°11'0 0.0
2016-Jul-19 08:33N 39°53' W 075°11'0 0.0
2016-Jul-19 07:33N 39°53' W 075°11'11 3.7
2016-Jul-19 04:33N 39°49' W 075°24'0 0.0
2016-Jul-19 03:33N 39°49' W 075°24'1 0.8
2016-Jul-19 02:33N 39°48' W 075°25'1 0.9
2016-Jul-19 01:33N 39°49' W 075°24'7 7.0
2016-Jul-19 00:34N 39°44' W 075°30'1 0.8
2016-Jul-18 23:33N 39°43' W 075°31'0 0.0
2016-Jul-18 22:33N 39°43' W 075°31'0 0.2
2016-Jul-18 21:34N 39°43' W 075°31'0 0.0
2016-Jul-18 20:33N 39°43' W 075°31'0 0.0
2016-Jul-18 19:34N 39°43' W 075°31'  

Dump ship's entire track history